Terminal Aerodrome Forecast
Issued by NWS

Home | Current Version | Previous Version | Text Only | Print | Product List | Glossary On
Versions: 1 2 3 4 5 6 7 8 9 10 11 12 13 14 15 16 17 18 19 20 21 22 23 24 25 26 27 28 29 30 31 32 33 34 35 36 37 38 39 40
000
FTUS44 KHGX 220520
TAFLBX
TAF
KLBX 220520Z 2206/2306 12004KT P6SM SCT250
     FM221000 10004KT 6SM BR SCT015
      TEMPO 2211/2213 4SM BR BKN015
     FM221500 14008KT P6SM BKN025
     FM221800 14008KT P6SM VCSH BKN035
     FM230200 11004KT P6SM SCT250=

USA.gov is the U.S. government's official web portal to all federal, state and local government web resources and services.